RIC weather

Richmond International Airport
Richmond, Virginia, United States

Public forecast

Using degrees Fahrenheit for public forecast. Weather courtesy of forecast.io.

METAR (pilot weather report)

Retrieved 2019/02/17 12:54 UTC (31 minutes ago):

KRIC 171254Z 03006KT 10SM SCT060 BKN220 00/M04 A3012 RMK AO2 SLP207 T00001039 $

TAF (pilot weather forecast)

Retrieved 2019/02/17 12:36 UTC (49 minutes ago):

TAF KRIC 171133Z 1712/1812 01005KT P6SM SCT200 FM171500 07005KT P6SM BKN200 FM171800 11005KT P6SM -RA OVC050 FM172100 14004KT 5SM -RA BR SCT010 OVC030 FM172300 15004KT 5SM -RA BR OVC015 FM180200 VRB03KT 3SM -RA BR OVC008 FM181000 VRB03KT P6SM -RA OVC020